Time;durP1;ratioP1;P1;durP2;ratioP2;P2;SDS_P1;SDS_P2;PMS_P1;PMS_P2;Temp;Humidity;BMP_temperature;BMP_pressure;BME280_temperature;BME280_humidity;BME280_pressure;Samples;Min_cycle;Max_cycle;Signal;HPM_P1;HPM_P2
2022/06/28 00:01:48;;;;;;;;;;;;;;;21.02;100.00;99412.59;5033941;28;20036;-59
2022/06/28 00:04:13;;;;;;;;;;;;;;;21.24;100.00;99417.19;5034607;28;20472;-59
2022/06/28 00:06:38;;;;;;;;;;;;;;;21.50;100.00;99410.16;5032575;28;19971;-59
2022/06/28 00:09:04;;;;;;;;;;;;;;;21.51;100.00;99415.28;5034550;28;19924;-60
2022/06/28 00:11:29;;;;;;;;;;;;;;;21.24;100.00;99412.78;5034481;28;19920;-59
2022/06/28 00:13:54;;;;;;;;;;;;;;;21.50;100.00;99407.53;5034675;28;20406;-59
2022/06/28 00:16:19;;;;;;;;;;;;;;;21.55;100.00;99415.91;5035042;28;20374;-59
2022/06/28 00:18:45;;;;;;;;;;;;;;;21.56;100.00;99411.50;5033711;28;20520;-59
2022/06/28 00:21:10;;;;;;;;;;;;;;;21.53;100.00;99417.81;5033440;28;20649;-59
2022/06/28 00:23:36;;;;;;;;;;;;;;;21.56;100.00;99412.34;5032897;28;19932;-58
2022/06/28 00:26:02;;;;;;;;;;;;;;;21.28;100.00;99413.44;5032340;28;19976;-58
2022/06/28 00:28:27;;;;;;;;;;;;;;;21.47;100.00;99410.38;5032423;28;19936;-58
2022/06/28 00:30:52;;;;;;;;;;;;;;;21.20;100.00;99419.19;5032866;28;19920;-58
2022/06/28 00:33:17;;;;;;;;;;;;;;;21.49;100.00;99408.50;5030644;28;20420;-58
2022/06/28 00:35:43;;;;;;;;;;;;;;;21.36;100.00;99415.50;5033835;28;19916;-58
2022/06/28 00:38:08;;;;;;;;;;;;;;;21.20;100.00;99406.09;5033764;28;19920;-58
2022/06/28 00:40:33;;;;;;;;;;;;;;;21.25;100.00;99406.59;5031148;28;19921;-57
2022/06/28 00:42:59;;;;;;;;;;;;;;;21.28;100.00;99409.03;5031517;28;19929;-59
2022/06/28 00:45:25;;;;;;;;;;;;;;;21.25;100.00;99419.69;5032234;28;19920;-59
2022/06/28 00:47:50;;;;;;;;;;;;;;;21.36;100.00;99420.75;5032150;28;20371;-58
2022/06/28 00:50:15;;;;;;;;;;;;;;;21.26;100.00;99428.41;5032803;28;19925;-58
2022/06/28 00:53:03;;;;;;;;;;;;;;;21.09;100.00;99430.38;5032287;28;20191;-57
2022/06/28 00:55:29;;;;;;;;;;;;;;;21.24;100.00;99439.00;5033658;28;19920;-57
2022/06/28 00:57:54;;;;;;;;;;;;;;;21.17;100.00;99437.75;5032461;28;19932;-58
2022/06/28 01:00:19;;;;;;;;;;;;;;;21.18;100.00;99439.41;5032112;28;19924;-57
2022/06/28 01:02:44;;;;;;;;;;;;;;;21.01;100.00;99442.34;5032580;28;20059;-58
2022/06/28 01:05:10;;;;;;;;;;;;;;;21.14;100.00;99442.34;5032218;28;19921;-58
2022/06/28 01:07:35;;;;;;;;;;;;;;;21.01;100.00;99445.81;5032851;28;19945;-58
2022/06/28 01:10:00;;;;;;;;;;;;;;;21.10;100.00;99446.97;5029952;28;20020;-57
2022/06/28 01:12:25;;;;;;;;;;;;;;;21.06;100.00;99450.72;5032636;28;19994;-58
2022/06/28 01:14:51;;;;;;;;;;;;;;;21.06;100.00;99450.72;5032629;28;20002;-58
2022/06/28 01:17:16;;;;;;;;;;;;;;;21.14;100.00;99464.13;5033281;28;20279;-57
2022/06/28 01:19:41;;;;;;;;;;;;;;;21.03;100.00;99470.09;5030221;28;19950;-58
2022/06/28 01:22:06;;;;;;;;;;;;;;;20.91;100.00;99468.31;5031736;28;19932;-58
2022/06/28 01:24:32;;;;;;;;;;;;;;;20.98;100.00;99473.97;5031320;28;20593;-57
2022/06/28 01:26:57;;;;;;;;;;;;;;;20.92;100.00;99474.41;5031438;28;20526;-57
2022/06/28 01:29:22;;;;;;;;;;;;;;;20.94;100.00;99480.34;5031644;28;20670;-57
2022/06/28 01:31:47;;;;;;;;;;;;;;;20.81;100.00;99478.56;5031183;28;20022;-57
2022/06/28 01:34:13;;;;;;;;;;;;;;;20.39;100.00;99482.19;5030696;28;19966;-58
2022/06/28 01:36:38;;;;;;;;;;;;;;;20.37;100.00;99482.31;5031586;28;19963;-57
2022/06/28 01:39:04;;;;;;;;;;;;;;;20.54;100.00;99485.59;5030616;28;19921;-57
2022/06/28 01:41:36;;;;;;;;;;;;;;;19.89;100.00;99489.72;5031859;28;20603;-58
2022/06/28 01:44:02;;;;;;;;;;;;;;;20.20;100.00;99493.00;5031132;28;20332;-58
2022/06/28 01:46:27;;;;;;;;;;;;;;;20.38;100.00;99483.97;5032560;28;19921;-58
2022/06/28 01:48:54;;;;;;;;;;;;;;;20.64;100.00;99479.69;5031870;28;20091;-58
2022/06/28 01:51:19;;;;;;;;;;;;;;;20.41;100.00;99486.41;5030595;28;19927;-58
2022/06/28 01:53:44;;;;;;;;;;;;;;;20.34;100.00;99490.31;5032416;28;19920;-58
2022/06/28 01:56:09;;;;;;;;;;;;;;;20.34;100.00;99482.47;5032162;28;20001;-58
2022/06/28 01:58:35;;;;;;;;;;;;;;;20.41;100.00;99486.41;5030795;28;20003;-58
2022/06/28 02:01:00;;;;;;;;;;;;;;;20.28;100.00;99480.28;5031602;28;19964;-58
2022/06/28 02:03:25;;;;;;;;;;;;;;;20.02;100.00;99485.38;5033389;28;19968;-58
2022/06/28 02:05:50;;;;;;;;;;;;;;;20.27;100.00;99478.59;5032794;28;19924;-58
2022/06/28 02:08:15;;;;;;;;;;;;;;;20.34;100.00;99487.72;5032944;28;20031;-58
2022/06/28 02:10:41;;;;;;;;;;;;;;;19.98;100.00;99489.16;5033534;28;20475;-58
2022/06/28 02:13:06;;;;;;;;;;;;;;;20.39;100.00;99480.44;5037361;28;19929;-58
2022/06/28 02:15:31;;;;;;;;;;;;;;;19.83;100.00;99490.09;5035248;28;20342;-57
2022/06/28 02:17:57;;;;;;;;;;;;;;;20.20;100.00;99483.38;5037381;28;19920;-57
2022/06/28 02:20:22;;;;;;;;;;;;;;;20.26;100.00;99487.38;5035846;28;20397;-57
2022/06/28 02:22:48;;;;;;;;;;;;;;;20.18;100.00;99481.78;5036037;28;19932;-57
2022/06/28 02:25:13;;;;;;;;;;;;;;;20.13;100.00;99486.50;5036737;28;20034;-57
2022/06/28 02:27:38;;;;;;;;;;;;;;;20.21;100.00;99481.63;5035713;28;20027;-57
2022/06/28 02:30:04;;;;;;;;;;;;;;;20.16;100.00;99486.28;5036474;28;20306;-57
2022/06/28 02:32:29;;;;;;;;;;;;;;;20.02;100.00;99489.78;5036398;28;20482;-57
2022/06/28 02:40:22;;;;;;;;;;;;;;;20.12;100.00;99496.13;5036024;28;19931;-57
2022/06/28 02:42:54;;;;;;;;;;;;;;;19.82;100.00;99493.66;5036566;28;19925;-57
2022/06/28 02:45:20;;;;;;;;;;;;;;;19.95;100.00;99499.78;5037475;28;19955;-57
2022/06/28 02:47:45;;;;;;;;;;;;;;;20.18;100.00;99500.09;5034642;28;20386;-57
2022/06/28 02:50:10;;;;;;;;;;;;;;;20.16;100.00;99501.97;5035999;28;19934;-57
2022/06/28 02:52:36;;;;;;;;;;;;;;;20.00;100.00;99507.34;5036107;28;20302;-57
2022/06/28 02:55:01;;;;;;;;;;;;;;;19.84;100.00;99510.06;5036654;28;19917;-57
2022/06/28 02:57:26;;;;;;;;;;;;;;;19.68;100.00;99511.91;5036828;28;19935;-57
2022/06/28 02:59:52;;;;;;;;;;;;;;;19.38;100.00;99505.00;5035228;28;20699;-57
2022/06/28 03:02:17;;;;;;;;;;;;;;;19.77;100.00;99511.38;5035895;28;20462;-56
2022/06/28 03:04:42;;;;;;;;;;;;;;;19.77;100.00;99506.16;5036095;28;20344;-57
2022/06/28 03:07:07;;;;;;;;;;;;;;;19.68;100.00;99509.31;5035786;28;19960;-56
2022/06/28 03:09:33;;;;;;;;;;;;;;;19.65;100.00;99503.31;5035924;28;19991;-57
2022/06/28 03:11:58;;;;;;;;;;;;;;;19.63;100.00;99509.59;5035935;28;19975;-57
2022/06/28 03:14:23;;;;;;;;;;;;;;;19.81;100.00;99503.25;5034774;28;19920;-57
2022/06/28 03:16:48;;;;;;;;;;;;;;;19.64;100.00;99506.06;5034997;28;19924;-56
2022/06/28 03:19:13;;;;;;;;;;;;;;;19.64;100.00;99503.44;5034239;28;20718;-57
2022/06/28 03:21:39;;;;;;;;;;;;;;;19.83;100.00;99511.00;5035732;28;20398;-57
2022/06/28 03:24:04;;;;;;;;;;;;;;;19.55;100.00;99517.91;5036533;28;19944;-57
2022/06/28 03:26:29;;;;;;;;;;;;;;;19.49;100.00;99518.28;5035688;28;19921;-57
2022/06/28 03:28:54;;;;;;;;;;;;;;;19.61;100.00;99527.13;5033673;28;19921;-57
2022/06/28 03:31:20;;;;;;;;;;;;;;;19.87;100.00;99511.66;5034640;28;19951;-57
2022/06/28 03:33:45;;;;;;;;;;;;;;;19.67;100.00;99520.69;5035016;28;19972;-57
2022/06/28 03:36:10;;;;;;;;;;;;;;;19.45;100.00;99519.38;5035366;28;19921;-57
2022/06/28 03:38:35;;;;;;;;;;;;;;;19.73;100.00;99523.81;5035650;28;19960;-55
2022/06/28 03:41:01;;;;;;;;;;;;;;;19.51;100.00;99526.84;5034200;28;19920;-55
2022/06/28 03:43:26;;;;;;;;;;;;;;;19.85;100.00;99519.59;5035849;28;20622;-57
2022/06/28 03:45:51;;;;;;;;;;;;;;;19.72;100.00;99529.13;5035909;28;20995;-57
2022/06/28 03:48:16;;;;;;;;;;;;;;;19.64;100.00;99524.34;5036307;28;19932;-57
2022/06/28 03:50:41;;;;;;;;;;;;;;;19.72;100.00;99526.50;5033373;28;19921;-57
2022/06/28 03:53:07;;;;;;;;;;;;;;;19.91;100.00;99529.69;5035858;28;19921;-57
2022/06/28 03:55:32;;;;;;;;;;;;;;;20.01;100.00;99529.94;5034875;28;19931;-57
2022/06/28 03:57:57;;;;;;;;;;;;;;;20.30;100.00;99527.25;5033969;28;19952;-57
2022/06/28 04:00:23;;;;;;;;;;;;;;;20.23;100.00;99534.63;5035533;28;19921;-57
2022/06/28 04:02:48;;;;;;;;;;;;;;;20.08;100.00;99533.00;5034028;28;19955;-57
2022/06/28 04:05:13;;;;;;;;;;;;;;;19.97;100.00;99528.44;5035293;28;19956;-56
2022/06/28 04:07:38;;;;;;;;;;;;;;;20.06;100.00;99533.09;5035393;28;19917;-56
2022/06/28 04:10:04;;;;;;;;;;;;;;;19.84;100.00;99534.44;5035109;28;19966;-56
2022/06/28 04:12:29;;;;;;;;;;;;;;;20.18;100.00;99534.94;5036300;28;19935;-56
2022/06/28 04:14:54;;;;;;;;;;;;;;;20.04;100.00;99540.19;5034907;28;20363;-58
2022/06/28 04:17:19;;;;;;;;;;;;;;;20.03;100.00;99544.59;5034832;28;20457;-57
2022/06/28 04:19:45;;;;;;;;;;;;;;;20.36;100.00;99545.16;5035017;28;19927;-56
2022/06/28 04:22:10;;;;;;;;;;;;;;;20.47;100.00;99543.53;5034806;28;20192;-56
2022/06/28 04:24:35;;;;;;;;;;;;;;;20.34;100.00;99542.66;5035505;28;19920;-57
2022/06/28 04:27:01;;;;;;;;;;;;;;;19.58;100.00;99541.22;5035430;28;20739;-57
2022/06/28 04:29:27;;;;;;;;;;;;;;;19.92;100.00;99549.66;5032990;28;19925;-56
2022/06/28 04:31:52;;;;;;;;;;;;;;;19.97;100.00;99538.91;5033637;28;19947;-56
2022/06/28 04:34:17;;;;;;;;;;;;;;;20.01;100.00;99538.63;5032250;28;19952;-59
2022/06/28 04:36:42;;;;;;;;;;;;;;;20.24;100.00;99541.56;5031132;28;20370;-55
2022/06/28 04:39:08;;;;;;;;;;;;;;;19.95;100.00;99535.53;5033971;28;20294;-55
2022/06/28 04:41:33;;;;;;;;;;;;;;;20.35;100.00;99541.72;5034372;28;20522;-57
2022/06/28 04:43:58;;;;;;;;;;;;;;;20.32;100.00;99544.53;5035951;28;19917;-57
2022/06/28 04:46:23;;;;;;;;;;;;;;;20.66;100.00;99537.16;5035649;28;19955;-57
2022/06/28 04:48:49;;;;;;;;;;;;;;;20.59;100.00;99536.69;5034750;28;19937;-57
2022/06/28 04:51:14;;;;;;;;;;;;;;;21.15;100.00;99541.78;5033985;28;19943;-57
2022/06/28 04:53:40;;;;;;;;;;;;;;;21.13;100.00;99538.41;5034606;28;19924;-57
2022/06/28 04:56:05;;;;;;;;;;;;;;;21.62;100.00;99529.88;5035897;28;20235;-54
2022/06/28 04:58:31;;;;;;;;;;;;;;;21.62;100.00;99540.34;5035027;28;19927;-57
2022/06/28 05:00:56;;;;;;;;;;;;;;;21.62;100.00;99532.50;5034652;28;19960;-56
2022/06/28 05:03:21;;;;;;;;;;;;;;;21.13;100.00;99541.03;5034527;28;19966;-57
2022/06/28 05:05:47;;;;;;;;;;;;;;;21.44;100.00;99534.59;5029526;28;20015;-55
2022/06/28 05:08:13;;;;;;;;;;;;;;;21.68;100.00;99541.69;5031930;28;19948;-57
2022/06/28 05:10:38;;;;;;;;;;;;;;;22.08;100.00;99534.50;5029771;28;20397;-57
2022/06/28 05:13:03;;;;;;;;;;;;;;;22.20;100.00;99542.44;5034017;28;19921;-57
2022/06/28 05:15:28;;;;;;;;;;;;;;;22.57;100.00;99529.31;5033614;28;19917;-57
2022/06/28 05:17:54;;;;;;;;;;;;;;;22.58;100.00;99536.22;5033039;28;19920;-57
2022/06/28 05:20:19;;;;;;;;;;;;;;;22.82;100.00;99533.59;5032107;28;19921;-57
2022/06/28 05:22:44;;;;;;;;;;;;;;;22.87;100.00;99534.06;5032680;28;19964;-57
2022/06/28 05:25:09;;;;;;;;;;;;;;;23.06;100.00;99534.41;5033574;28;19921;-57
2022/06/28 05:27:35;;;;;;;;;;;;;;;23.29;100.00;99527.41;5031414;28;19924;-57
2022/06/28 05:30:00;;;;;;;;;;;;;;;22.96;100.00;99523.69;5030547;28;19921;-57
2022/06/28 05:32:25;;;;;;;;;;;;;;;23.31;100.00;99522.88;5034061;28;19970;-57
2022/06/28 05:34:51;;;;;;;;;;;;;;;23.56;100.00;99524.44;5032616;28;20114;-58
2022/06/28 05:37:16;;;;;;;;;;;;;;;23.45;100.00;99520.97;5031535;28;20020;-58
2022/06/28 05:39:41;;;;;;;;;;;;;;;22.72;100.00;99533.44;5032352;28;20416;-58
2022/06/28 05:42:06;;;;;;;;;;;;;;;22.21;100.00;99536.22;5032762;28;19924;-58
2022/06/28 05:44:31;;;;;;;;;;;;;;;22.39;100.00;99534.94;5031486;28;20349;-58
2022/06/28 05:46:57;;;;;;;;;;;;;;;22.40;100.00;99533.13;5032731;28;20869;-58
2022/06/28 05:49:22;;;;;;;;;;;;;;;22.09;100.00;99533.53;5033063;28;19917;-58
2022/06/28 05:51:47;;;;;;;;;;;;;;;22.69;100.00;99528.38;5030963;28;19920;-57
2022/06/28 05:54:12;;;;;;;;;;;;;;;22.53;100.00;99529.53;5033590;28;19921;-58
2022/06/28 05:56:38;;;;;;;;;;;;;;;22.54;100.00;99541.69;5032782;28;19927;-58
2022/06/28 05:59:06;;;;;;;;;;;;;;;22.95;100.00;99535.19;5033246;28;19947;-58
2022/06/28 06:01:31;;;;;;;;;;;;;;;23.62;100.00;99528.38;5032978;28;19925;-58
2022/06/28 06:03:57;;;;;;;;;;;;;;;23.21;100.00;99535.03;5033564;28;19959;-58
2022/06/28 06:06:23;;;;;;;;;;;;;;;23.22;100.00;99530.59;5031932;28;20443;-58
2022/06/28 06:08:48;;;;;;;;;;;;;;;22.94;100.00;99538.78;5032657;28;19921;-58
2022/06/28 06:11:14;;;;;;;;;;;;;;;22.55;100.00;99537.28;5031214;28;19978;-58
2022/06/28 06:13:39;;;;;;;;;;;;;;;23.25;100.00;99536.47;5031907;28;19967;-58
2022/06/28 06:16:05;;;;;;;;;;;;;;;23.30;100.00;99533.50;5033047;28;19927;-58
2022/06/28 06:18:30;;;;;;;;;;;;;;;23.55;100.00;99533.28;5032931;28;20028;-58
2022/06/28 06:20:55;;;;;;;;;;;;;;;23.14;100.00;99539.91;5031908;28;19920;-58
2022/06/28 06:23:21;;;;;;;;;;;;;;;23.90;99.60;99534.13;5033543;28;20027;-58
2022/06/28 06:25:46;;;;;;;;;;;;;;;23.84;100.00;99532.84;5032285;28;19921;-58
2022/06/28 06:28:11;;;;;;;;;;;;;;;25.00;96.95;99530.47;5032833;28;20328;-58
2022/06/28 06:30:36;;;;;;;;;;;;;;;24.91;95.60;99543.59;5032537;28;20062;-58
2022/06/28 06:33:02;;;;;;;;;;;;;;;24.88;93.62;99539.38;5031420;28;19921;-58
2022/06/28 06:35:27;;;;;;;;;;;;;;;24.59;96.39;99542.63;5032906;28;19917;-58
2022/06/28 06:37:55;;;;;;;;;;;;;;;25.46;92.98;99545.06;5022604;28;20007;-58
2022/06/28 06:40:21;;;;;;;;;;;;;;;24.34;94.86;99546.38;5031954;28;19921;-58
2022/06/28 06:42:46;;;;;;;;;;;;;;;24.91;94.50;99552.31;5031063;28;19925;-58
2022/06/28 06:45:11;;;;;;;;;;;;;;;24.30;98.66;99555.50;5032167;28;19921;-58
2022/06/28 06:47:36;;;;;;;;;;;;;;;24.86;92.65;99549.25;5032147;28;20007;-58
2022/06/28 06:50:07;;;;;;;;;;;;;;;23.99;96.51;99551.81;5032085;28;19962;-58
2022/06/28 06:52:32;;;;;;;;;;;;;;;24.61;95.49;99551.25;5032355;28;20499;-58
2022/06/28 06:54:57;;;;;;;;;;;;;;;26.26;88.89;99546.06;5033389;28;19925;-58
2022/06/28 06:57:23;;;;;;;;;;;;;;;26.36;88.42;99554.00;5036563;28;19964;-58
2022/06/28 06:59:48;;;;;;;;;;;;;;;25.22;89.76;99555.03;5036296;28;19956;-59
2022/06/28 07:02:13;;;;;;;;;;;;;;;26.60;88.68;99548.38;5036286;28;19975;-58
2022/06/28 07:04:39;;;;;;;;;;;;;;;25.65;88.51;99554.84;5036160;28;20391;-58
2022/06/28 07:07:04;;;;;;;;;;;;;;;26.25;89.03;99557.59;5036045;28;19967;-58
2022/06/28 07:09:29;;;;;;;;;;;;;;;26.46;84.40;99551.38;5035809;28;19947;-58
2022/06/28 07:11:55;;;;;;;;;;;;;;;26.19;83.49;99558.13;5035940;28;19998;-59
2022/06/28 07:14:20;;;;;;;;;;;;;;;26.68;83.27;99553.78;5035553;28;20039;-59
2022/06/28 07:16:45;;;;;;;;;;;;;;;25.37;86.57;99572.22;5035720;28;19947;-59
2022/06/28 07:19:11;;;;;;;;;;;;;;;24.79;90.79;99574.38;5035193;28;19967;-59
2022/06/28 07:21:36;;;;;;;;;;;;;;;26.28;87.48;99561.78;5035871;28;19929;-59
2022/06/28 07:24:01;;;;;;;;;;;;;;;26.97;84.98;99552.94;5035909;28;19916;-59
2022/06/28 07:26:26;;;;;;;;;;;;;;;27.26;80.32;99552.94;5035646;28;19932;-59
2022/06/28 07:28:52;;;;;;;;;;;;;;;24.98;86.40;99561.38;5034686;28;20031;-59
2022/06/28 07:31:17;;;;;;;;;;;;;;;26.97;83.96;99554.75;5035890;28;20036;-59
2022/06/28 07:33:42;;;;;;;;;;;;;;;27.67;79.18;99552.66;5035293;28;19924;-59
2022/06/28 07:36:08;;;;;;;;;;;;;;;26.19;82.10;99558.13;5035894;28;19928;-59
2022/06/28 07:38:33;;;;;;;;;;;;;;;25.72;89.96;99560.44;5034975;28;19917;-59
2022/06/28 07:40:59;;;;;;;;;;;;;;;26.04;87.40;99554.19;5035391;28;19974;-60
2022/06/28 07:43:25;;;;;;;;;;;;;;;25.81;91.05;99557.00;5035251;28;19996;-59
2022/06/28 07:45:50;;;;;;;;;;;;;;;27.08;86.48;99560.72;5035233;28;19932;-59
2022/06/28 07:48:18;;;;;;;;;;;;;;;27.43;80.70;99548.69;5017076;28;19921;-59
2022/06/28 07:53:27;;;;;;;;;;;;;;;28.29;78.38;99545.81;5035687;28;19947;-60
2022/06/28 07:55:52;;;;;;;;;;;;;;;27.45;78.15;99551.22;5034310;28;19921;-60
2022/06/28 07:58:17;;;;;;;;;;;;;;;27.51;81.79;99551.47;5034209;28;20461;-60
2022/06/28 08:00:43;;;;;;;;;;;;;;;28.14;78.42;99542.84;5032414;28;20323;-60
2022/06/28 08:03:08;;;;;;;;;;;;;;;28.35;76.87;99544.38;5035615;28;20370;-60
2022/06/28 08:05:33;;;;;;;;;;;;;;;28.78;76.44;99540.16;5034234;28;19936;-61
2022/06/28 08:07:59;;;;;;;;;;;;;;;28.15;82.52;99554.28;5032988;28;19920;-60
2022/06/28 08:10:24;;;;;;;;;;;;;;;27.99;78.86;99546.16;5033807;28;19975;-60
2022/06/28 08:12:49;;;;;;;;;;;;;;;28.52;79.15;99545.41;5034084;28;19927;-60
2022/06/28 08:15:14;;;;;;;;;;;;;;;27.18;84.42;99560.69;5034533;28;19921;-60
2022/06/28 08:17:40;;;;;;;;;;;;;;;28.92;76.86;99536.13;5034029;28;20810;-60
2022/06/28 08:20:06;;;;;;;;;;;;;;;29.10;76.90;99534.34;5032836;28;19995;-60
2022/06/28 08:22:31;;;;;;;;;;;;;;;28.47;74.08;99537.09;5033940;28;19925;-60
2022/06/28 08:24:56;;;;;;;;;;;;;;;26.57;79.87;99543.38;5034226;28;19925;-60
2022/06/28 08:27:21;;;;;;;;;;;;;;;28.69;74.14;99534.00;5032912;28;20050;-60
2022/06/28 08:29:47;;;;;;;;;;;;;;;28.16;76.47;99532.09;5033383;28;19917;-60
2022/06/28 08:32:13;;;;;;;;;;;;;;;28.14;76.82;99529.63;5034222;28;20516;-60
2022/06/28 08:34:38;;;;;;;;;;;;;;;27.73;77.17;99525.59;5033087;28;19920;-60
2022/06/28 08:37:04;;;;;;;;;;;;;;;29.33;71.36;99528.47;5032549;28;20012;-60
2022/06/28 08:39:29;;;;;;;;;;;;;;;27.62;74.67;99531.09;5033697;28;19916;-60
2022/06/28 08:41:54;;;;;;;;;;;;;;;30.18;68.50;99516.09;5033671;28;19935;-60
2022/06/28 08:44:19;;;;;;;;;;;;;;;30.05;68.04;99533.50;5032233;28;19920;-60
2022/06/28 08:46:45;;;;;;;;;;;;;;;28.24;72.87;99526.91;5033436;28;20267;-60
2022/06/28 08:49:17;;;;;;;;;;;;;;;29.52;68.89;99525.63;5032135;28;19920;-60
2022/06/28 08:51:42;;;;;;;;;;;;;;;30.13;64.09;99521.06;5033971;28;19925;-61
2022/06/28 08:54:07;;;;;;;;;;;;;;;29.74;65.38;99516.31;5032045;28;19917;-61
2022/06/28 08:56:33;;;;;;;;;;;;;;;28.16;59.85;99518.84;5033529;28;19951;-61
2022/06/28 08:58:58;;;;;;;;;;;;;;;28.45;63.68;99520.47;5031413;28;20555;-61
2022/06/28 09:01:24;;;;;;;;;;;;;;;29.32;61.79;99517.03;5033792;28;19924;-61
2022/06/28 09:03:50;;;;;;;;;;;;;;;29.43;58.64;99520.44;5033304;28;20565;-61
2022/06/28 09:06:15;;;;;;;;;;;;;;;30.85;52.09;99515.19;5033693;28;19925;-61
2022/06/28 09:08:41;;;;;;;;;;;;;;;30.34;55.20;99512.66;5033468;28;19920;-61
2022/06/28 09:11:06;;;;;;;;;;;;;;;31.10;60.66;99510.69;5032744;28;19920;-61
2022/06/28 09:13:33;;;;;;;;;;;;;;;29.39;66.03;99514.59;5033090;28;20319;-61
2022/06/28 09:16:00;;;;;;;;;;;;;;;29.53;57.15;99513.16;5032164;28;19917;-61
2022/06/28 09:18:26;;;;;;;;;;;;;;;31.15;52.52;99505.69;5033151;28;19977;-61
2022/06/28 09:20:52;;;;;;;;;;;;;;;30.42;51.03;99504.69;5032881;28;19920;-61
2022/06/28 09:23:21;;;;;;;;;;;;;;;30.19;53.49;99509.78;5033121;28;19936;-60
2022/06/28 09:25:47;;;;;;;;;;;;;;;30.45;50.21;99511.53;5033473;28;19927;-61
2022/06/28 09:28:13;;;;;;;;;;;;;;;30.41;50.57;99507.53;5032284;28;20511;-60
2022/06/28 09:30:38;;;;;;;;;;;;;;;30.83;56.09;99501.22;5030517;28;19936;-60
2022/06/28 09:33:04;;;;;;;;;;;;;;;28.85;53.38;99508.56;5033613;28;19967;-61
2022/06/28 09:35:29;;;;;;;;;;;;;;;31.64;52.04;99497.59;5032874;28;19955;-61
2022/06/28 09:37:54;;;;;;;;;;;;;;;33.14;45.12;99497.22;5032225;28;20766;-61
2022/06/28 09:40:20;;;;;;;;;;;;;;;32.64;46.48;99498.66;5031544;28;19928;-62
2022/06/28 09:42:47;;;;;;;;;;;;;;;31.95;47.91;99502.06;5032177;28;20432;-61
2022/06/28 09:45:14;;;;;;;;;;;;;;;32.99;46.97;99488.38;5031471;28;20784;-61
2022/06/28 09:47:47;;;;;;;;;;;;;;;30.39;54.36;99501.53;5032671;28;19925;-60
2022/06/28 09:50:13;;;;;;;;;;;;;;;30.24;52.60;99490.69;5028784;28;19921;-61
2022/06/28 09:52:40;;;;;;;;;;;;;;;29.52;53.18;99495.59;5030697;28;20012;-61
2022/06/28 09:55:07;;;;;;;;;;;;;;;28.51;47.09;99498.69;5031245;28;19932;-61
2022/06/28 09:57:33;;;;;;;;;;;;;;;30.12;48.82;99492.00;5031433;28;20031;-61
2022/06/28 09:59:58;;;;;;;;;;;;;;;30.50;43.12;99489.78;5030584;28;19927;-61
2022/06/28 10:02:23;;;;;;;;;;;;;;;32.64;38.00;99480.00;5031179;28;20501;-61
2022/06/28 10:04:48;;;;;;;;;;;;;;;32.88;39.64;99487.78;5030153;28;19920;-62
2022/06/28 10:07:14;;;;;;;;;;;;;;;30.22;45.53;99497.97;5030698;28;19921;-61
2022/06/28 10:09:39;;;;;;;;;;;;;;;29.94;47.11;99500.91;5032016;28;20361;-61
2022/06/28 10:15:01;;;;;;;;;;;;;;;30.53;46.53;99489.44;5033003;28;19932;-61
2022/06/28 10:17:29;;;;;;;;;;;;;;;30.92;44.92;99488.78;5032830;28;20405;-61
2022/06/28 10:19:55;;;;;;;;;;;;;;;29.10;49.83;99491.91;5032619;28;19952;-61
2022/06/28 10:22:20;;;;;;;;;;;;;;;30.21;44.44;99485.72;5031107;28;20755;-61
2022/06/28 10:24:55;;;;;;;;;;;;;;;32.37;42.86;99482.19;5032033;28;19921;-61
2022/06/28 10:27:21;;;;;;;;;;;;;;;31.55;40.00;99474.66;5032806;28;19921;-61
2022/06/28 10:30:00;;;;;;;;;;;;;;;32.77;40.09;99477.56;5032575;28;19928;-61
2022/06/28 10:32:37;;;;;;;;;;;;;;;32.67;38.97;99477.00;5036345;28;20343;-62
2022/06/28 10:35:03;;;;;;;;;;;;;;;33.18;41.10;99482.50;5037187;28;19963;-61
2022/06/28 10:37:28;;;;;;;;;;;;;;;33.16;40.06;99479.19;5036210;28;19924;-61
2022/06/28 10:40:13;;;;;;;;;;;;;;;31.67;41.65;99469.78;5035881;28;19998;-61
2022/06/28 10:42:51;;;;;;;;;;;;;;;33.24;39.81;99459.59;5036617;28;19924;-62
2022/06/28 10:45:17;;;;;;;;;;;;;;;32.26;39.38;99461.28;5035960;28;19928;-62
2022/06/28 10:48:00;;;;;;;;;;;;;;;32.25;38.84;99454.28;5036146;28;19921;-62
2022/06/28 10:50:26;;;;;;;;;;;;;;;32.90;39.39;99456.41;5036258;28;19951;-62
2022/06/28 10:53:01;;;;;;;;;;;;;;;33.81;37.61;99455.41;5035235;28;20732;-62
2022/06/28 10:55:26;;;;;;;;;;;;;;;33.24;36.94;99448.94;5037352;28;19924;-62
2022/06/28 10:58:07;;;;;;;;;;;;;;;34.71;38.47;99448.66;5035966;28;20460;-62
2022/06/28 11:00:34;;;;;;;;;;;;;;;33.23;35.86;99439.25;5035887;28;21099;-61
2022/06/28 11:03:00;;;;;;;;;;;;;;;32.86;37.34;99439.09;5035617;28;19932;-61
2022/06/28 11:05:46;;;;;;;;;;;;;;;31.78;40.55;99431.28;5036757;28;19952;-62
2022/06/28 11:08:12;;;;;;;;;;;;;;;30.99;42.20;99433.88;5020711;28;19921;-61
2022/06/28 11:10:38;;;;;;;;;;;;;;;29.48;43.45;99435.88;5035635;28;19916;-61
2022/06/28 11:13:19;;;;;;;;;;;;;;;30.17;42.88;99433.91;5034519;28;19968;-61
2022/06/28 11:15:44;;;;;;;;;;;;;;;30.75;41.66;99437.41;5035888;28;19923;-61
2022/06/28 11:18:16;;;;;;;;;;;;;;;29.57;40.67;99443.69;5035250;28;19924;-61
2022/06/28 11:20:41;;;;;;;;;;;;;;;30.89;40.41;99430.59;5036016;28;19920;-61
2022/06/28 11:23:07;;;;;;;;;;;;;;;31.34;40.22;99423.78;5035434;28;19928;-61
2022/06/28 11:28:16;;;;;;;;;;;;;;;31.78;38.99;99416.13;5035491;28;20506;-61
2022/06/28 11:30:42;;;;;;;;;;;;;;;32.46;38.81;99414.47;5036079;28;20121;-61
2022/06/28 11:33:08;;;;;;;;;;;;;;;34.02;35.08;99409.16;5018338;28;19924;-61
2022/06/28 11:35:33;;;;;;;;;;;;;;;33.84;36.51;99412.28;5034946;28;19920;-61
2022/06/28 11:38:02;;;;;;;;;;;;;;;33.83;38.41;99415.97;5036155;28;19921;-62
2022/06/28 11:40:29;;;;;;;;;;;;;;;33.91;37.97;99410.50;5030709;28;19921;-61
2022/06/28 11:43:01;;;;;;;;;;;;;;;34.29;35.43;99404.91;5034871;28;20715;-61
2022/06/28 11:45:27;;;;;;;;;;;;;;;34.92;36.98;99405.81;5033622;28;19921;-62
2022/06/28 11:47:52;;;;;;;;;;;;;;;33.77;34.89;99403.34;5034495;28;19928;-63
2022/06/28 11:50:18;;;;;;;;;;;;;;;33.98;36.28;99400.69;5034421;28;19920;-62
2022/06/28 11:52:45;;;;;;;;;;;;;;;33.73;33.48;99393.06;5035506;28;20404;-62
2022/06/28 11:55:11;;;;;;;;;;;;;;;34.37;37.13;99396.75;5034188;28;20440;-62
2022/06/28 11:57:37;;;;;;;;;;;;;;;35.61;35.47;99388.00;5034241;28;19921;-62
2022/06/28 12:00:04;;;;;;;;;;;;;;;35.23;35.97;99385.78;5034587;28;20337;-63
2022/06/28 12:02:38;;;;;;;;;;;;;;;34.63;34.94;99389.97;5035900;28;19925;-62
2022/06/28 12:05:03;;;;;;;;;;;;;;;36.51;33.68;99388.50;5035672;28;20109;-62
2022/06/28 12:07:40;;;;;;;;;;;;;;;33.84;35.04;99390.91;5036357;28;20903;-62
2022/06/28 12:10:09;;;;;;;;;;;;;;;33.61;37.85;99391.88;5033615;28;20499;-62
2022/06/28 12:12:40;;;;;;;;;;;;;;;34.44;30.81;99378.91;5033826;28;20377;-62
2022/06/28 12:15:06;;;;;;;;;;;;;;;34.38;31.53;99377.00;5035674;28;20020;-62
2022/06/28 12:17:41;;;;;;;;;;;;;;;34.42;34.43;99386.31;5034198;28;19921;-62
2022/06/28 12:20:07;;;;;;;;;;;;;;;32.23;36.70;99381.72;5034766;28;21220;-62
2022/06/28 12:22:32;;;;;;;;;;;;;;;34.43;35.45;99374.56;5035139;28;19964;-62
2022/06/28 12:24:58;;;;;;;;;;;;;;;35.09;31.11;99363.47;5033457;28;20543;-62
2022/06/28 12:27:27;;;;;;;;;;;;;;;35.48;34.56;99363.84;5033985;28;19936;-62
2022/06/28 12:29:52;;;;;;;;;;;;;;;34.19;31.00;99366.97;5033245;28;19920;-61
2022/06/28 12:32:18;;;;;;;;;;;;;;;34.88;34.10;99372.44;5034321;28;19917;-62
2022/06/28 12:34:43;;;;;;;;;;;;;;;33.63;31.01;99363.16;5034561;28;19929;-62
2022/06/28 12:37:09;;;;;;;;;;;;;;;35.12;33.29;99357.72;5034670;28;20006;-62
2022/06/28 12:39:34;;;;;;;;;;;;;;;34.15;33.32;99356.69;5032409;28;19920;-63
2022/06/28 12:41:59;;;;;;;;;;;;;;;33.54;34.38;99354.41;5034045;28;19925;-62
2022/06/28 12:44:25;;;;;;;;;;;;;;;33.56;34.47;99356.88;5033522;28;19946;-62
2022/06/28 12:46:53;;;;;;;;;;;;;;;33.23;31.93;99341.34;5032801;28;19954;-62
2022/06/28 12:49:21;;;;;;;;;;;;;;;34.68;32.44;99339.38;5031882;28;19924;-62